sensor_id;sensor_type;location;lat;lon;timestamp;temperature;humidity
14053;DHT22;7101;51.600;7.310;2023-12-04T00:01:13;0.90;99.90
14053;DHT22;7101;51.600;7.310;2023-12-04T00:03:39;0.90;99.90
14053;DHT22;7101;51.600;7.310;2023-12-04T00:06:07;0.90;1.00
14053;DHT22;7101;51.600;7.310;2023-12-04T00:08:33;0.90;1.00
14053;DHT22;7101;51.600;7.310;2023-12-04T00:11:00;0.90;1.00
14053;DHT22;7101;51.600;7.310;2023-12-04T00:13:27;0.80;1.00
14053;DHT22;7101;51.600;7.310;2023-12-04T00:15:54;0.80;1.00
14053;DHT22;7101;51.600;7.310;2023-12-04T00:18:22;0.80;1.00
14053;DHT22;7101;51.600;7.310;2023-12-04T00:20:48;0.90;1.00
14053;DHT22;7101;51.600;7.310;2023-12-04T00:23:15;0.90;1.00
14053;DHT22;7101;51.600;7.310;2023-12-04T00:25:42;0.80;99.90
14053;DHT22;7101;51.600;7.310;2023-12-04T00:28:09;0.80;99.90
14053;DHT22;7101;51.600;7.310;2023-12-04T00:30:36;0.70;99.90
14053;DHT22;7101;51.600;7.310;2023-12-04T00:33:02;0.70;68.90
14053;DHT22;7101;51.600;7.310;2023-12-04T00:35:30;0.70;32.00
14053;DHT22;7101;51.600;7.310;2023-12-04T00:37:58;0.80;1.00
14053;DHT22;7101;51.600;7.310;2023-12-04T00:40:25;0.80;1.00
14053;DHT22;7101;51.600;7.310;2023-12-04T00:42:52;0.80;1.00
14053;DHT22;7101;51.600;7.310;2023-12-04T00:45:19;0.80;1.00
14053;DHT22;7101;51.600;7.310;2023-12-04T00:47:45;0.80;1.00
14053;DHT22;7101;51.600;7.310;2023-12-04T00:50:12;0.80;1.00
14053;DHT22;7101;51.600;7.310;2023-12-04T00:52:40;0.80;1.00
14053;DHT22;7101;51.600;7.310;2023-12-04T00:55:07;0.80;1.00
14053;DHT22;7101;51.600;7.310;2023-12-04T00:57:34;0.80;1.00
14053;DHT22;7101;51.600;7.310;2023-12-04T01:00:01;0.80;99.90
14053;DHT22;7101;51.600;7.310;2023-12-04T01:02:28;0.80;99.90
14053;DHT22;7101;51.600;7.310;2023-12-04T01:04:55;0.80;99.90
14053;DHT22;7101;51.600;7.310;2023-12-04T01:07:22;0.90;99.90
14053;DHT22;7101;51.600;7.310;2023-12-04T01:09:50;0.90;1.00
14053;DHT22;7101;51.600;7.310;2023-12-04T01:12:17;0.90;99.90
14053;DHT22;7101;51.600;7.310;2023-12-04T01:14:44;0.80;99.90
14053;DHT22;7101;51.600;7.310;2023-12-04T01:17:10;0.90;1.00
14053;DHT22;7101;51.600;7.310;2023-12-04T01:19:37;0.80;1.00
14053;DHT22;7101;51.600;7.310;2023-12-04T01:22:04;0.80;1.00
14053;DHT22;7101;51.600;7.310;2023-12-04T01:24:31;0.80;6.20
14053;DHT22;7101;51.600;7.310;2023-12-04T01:27:00;0.80;1.00
14053;DHT22;7101;51.600;7.310;2023-12-04T01:29:27;0.80;1.00
14053;DHT22;7101;51.600;7.310;2023-12-04T01:31:54;0.80;1.00
14053;DHT22;7101;51.600;7.310;2023-12-04T01:34:21;0.70;1.00
14053;DHT22;7101;51.600;7.310;2023-12-04T01:36:48;0.70;1.00
14053;DHT22;7101;51.600;7.310;2023-12-04T01:39:14;0.70;1.00
14053;DHT22;7101;51.600;7.310;2023-12-04T01:41:41;0.70;99.90
14053;DHT22;7101;51.600;7.310;2023-12-04T01:44:09;0.80;99.90
14053;DHT22;7101;51.600;7.310;2023-12-04T01:46:37;0.90;99.90
14053;DHT22;7101;51.600;7.310;2023-12-04T01:49:04;0.90;99.90
14053;DHT22;7101;51.600;7.310;2023-12-04T01:51:32;0.80;1.00
14053;DHT22;7101;51.600;7.310;2023-12-04T01:53:59;0.80;99.90
14053;DHT22;7101;51.600;7.310;2023-12-04T01:56:27;0.80;99.90
14053;DHT22;7101;51.600;7.310;2023-12-04T01:58:53;0.80;99.90
14053;DHT22;7101;51.600;7.310;2023-12-04T02:01:22;0.80;99.90
14053;DHT22;7101;51.600;7.310;2023-12-04T02:03:50;0.70;99.90
14053;DHT22;7101;51.600;7.310;2023-12-04T02:06:17;0.80;99.90
14053;DHT22;7101;51.600;7.310;2023-12-04T02:08:46;0.70;99.90
14053;DHT22;7101;51.600;7.310;2023-12-04T02:11:13;0.60;99.90
14053;DHT22;7101;51.600;7.310;2023-12-04T02:13:40;0.50;99.90
14053;DHT22;7101;51.600;7.310;2023-12-04T02:16:09;0.50;99.90
14053;DHT22;7101;51.600;7.310;2023-12-04T02:18:38;0.50;99.90
14053;DHT22;7101;51.600;7.310;2023-12-04T02:21:06;0.40;99.90
14053;DHT22;7101;51.600;7.310;2023-12-04T02:23:33;0.40;99.90
14053;DHT22;7101;51.600;7.310;2023-12-04T02:26:05;0.30;99.90
14053;DHT22;7101;51.600;7.310;2023-12-04T02:28:36;0.30;99.90
14053;DHT22;7101;51.600;7.310;2023-12-04T02:31:04;0.30;99.90
14053;DHT22;7101;51.600;7.310;2023-12-04T02:33:32;0.40;99.90
14053;DHT22;7101;51.600;7.310;2023-12-04T02:36:01;0.40;99.90
14053;DHT22;7101;51.600;7.310;2023-12-04T02:38:29;0.40;99.90
14053;DHT22;7101;51.600;7.310;2023-12-04T02:40:56;0.40;99.90
14053;DHT22;7101;51.600;7.310;2023-12-04T02:43:24;0.40;99.90
14053;DHT22;7101;51.600;7.310;2023-12-04T02:45:51;0.40;99.90
14053;DHT22;7101;51.600;7.310;2023-12-04T02:48:17;0.50;99.90
14053;DHT22;7101;51.600;7.310;2023-12-04T02:50:44;0.50;99.90
14053;DHT22;7101;51.600;7.310;2023-12-04T02:53:11;0.50;99.90
14053;DHT22;7101;51.600;7.310;2023-12-04T02:55:38;0.50;99.90
14053;DHT22;7101;51.600;7.310;2023-12-04T02:58:05;0.50;99.90
14053;DHT22;7101;51.600;7.310;2023-12-04T03:00:33;0.50;99.90
14053;DHT22;7101;51.600;7.310;2023-12-04T03:02:59;0.50;99.90
14053;DHT22;7101;51.600;7.310;2023-12-04T03:05:26;0.50;99.90
14053;DHT22;7101;51.600;7.310;2023-12-04T03:07:54;0.50;99.90
14053;DHT22;7101;51.600;7.310;2023-12-04T03:10:21;0.60;99.90
14053;DHT22;7101;51.600;7.310;2023-12-04T03:12:47;0.70;99.90
14053;DHT22;7101;51.600;7.310;2023-12-04T03:15:14;0.80;99.90
14053;DHT22;7101;51.600;7.310;2023-12-04T03:17:42;0.80;99.90
14053;DHT22;7101;51.600;7.310;2023-12-04T03:20:10;0.80;99.90
14053;DHT22;7101;51.600;7.310;2023-12-04T03:22:37;0.80;99.90
14053;DHT22;7101;51.600;7.310;2023-12-04T03:25:05;0.90;99.90
14053;DHT22;7101;51.600;7.310;2023-12-04T03:27:32;0.90;99.90
14053;DHT22;7101;51.600;7.310;2023-12-04T03:29:58;0.90;99.90
14053;DHT22;7101;51.600;7.310;2023-12-04T03:32:25;0.90;99.90
14053;DHT22;7101;51.600;7.310;2023-12-04T03:34:53;0.90;99.90
14053;DHT22;7101;51.600;7.310;2023-12-04T03:37:20;0.90;99.90
14053;DHT22;7101;51.600;7.310;2023-12-04T03:39:47;1.00;99.90
14053;DHT22;7101;51.600;7.310;2023-12-04T03:42:13;1.00;99.90
14053;DHT22;7101;51.600;7.310;2023-12-04T03:44:40;1.00;99.90
14053;DHT22;7101;51.600;7.310;2023-12-04T03:47:07;1.00;99.90
14053;DHT22;7101;51.600;7.310;2023-12-04T03:49:34;0.90;99.90
14053;DHT22;7101;51.600;7.310;2023-12-04T03:52:02;0.90;99.90
14053;DHT22;7101;51.600;7.310;2023-12-04T03:54:29;1.00;99.90
14053;DHT22;7101;51.600;7.310;2023-12-04T03:56:56;1.00;99.90
14053;DHT22;7101;51.600;7.310;2023-12-04T03:59:22;1.00;99.90
14053;DHT22;7101;51.600;7.310;2023-12-04T04:01:49;0.90;99.90
14053;DHT22;7101;51.600;7.310;2023-12-04T04:04:16;0.90;99.90
14053;DHT22;7101;51.600;7.310;2023-12-04T04:06:43;0.70;99.90
14053;DHT22;7101;51.600;7.310;2023-12-04T04:09:11;0.70;99.90
14053;DHT22;7101;51.600;7.310;2023-12-04T04:11:38;0.80;99.90
14053;DHT22;7101;51.600;7.310;2023-12-04T04:14:05;0.80;99.90
14053;DHT22;7101;51.600;7.310;2023-12-04T04:16:32;0.90;99.90
14053;DHT22;7101;51.600;7.310;2023-12-04T04:18:58;1.00;99.90
14053;DHT22;7101;51.600;7.310;2023-12-04T04:21:25;1.10;99.90
14053;DHT22;7101;51.600;7.310;2023-12-04T04:23:52;1.10;99.90
14053;DHT22;7101;51.600;7.310;2023-12-04T04:26:20;1.20;99.90
14053;DHT22;7101;51.600;7.310;2023-12-04T04:28:47;1.20;99.90
14053;DHT22;7101;51.600;7.310;2023-12-04T04:31:14;1.20;99.90
14053;DHT22;7101;51.600;7.310;2023-12-04T04:33:41;1.20;99.90
14053;DHT22;7101;51.600;7.310;2023-12-04T04:36:09;1.30;99.90
14053;DHT22;7101;51.600;7.310;2023-12-04T04:38:36;1.30;99.90
14053;DHT22;7101;51.600;7.310;2023-12-04T04:41:04;1.40;99.90
14053;DHT22;7101;51.600;7.310;2023-12-04T04:43:32;1.40;99.90
14053;DHT22;7101;51.600;7.310;2023-12-04T04:45:59;1.40;99.90
14053;DHT22;7101;51.600;7.310;2023-12-04T04:48:25;1.40;99.90
14053;DHT22;7101;51.600;7.310;2023-12-04T04:50:52;1.40;99.90
14053;DHT22;7101;51.600;7.310;2023-12-04T04:53:19;1.50;99.90
14053;DHT22;7101;51.600;7.310;2023-12-04T04:55:46;1.40;99.90
14053;DHT22;7101;51.600;7.310;2023-12-04T04:58:13;1.40;99.90
14053;DHT22;7101;51.600;7.310;2023-12-04T05:00:41;1.40;99.90
14053;DHT22;7101;51.600;7.310;2023-12-04T05:03:08;1.30;99.90
14053;DHT22;7101;51.600;7.310;2023-12-04T05:05:34;1.30;99.90
14053;DHT22;7101;51.600;7.310;2023-12-04T05:08:01;1.20;99.90
14053;DHT22;7101;51.600;7.310;2023-12-04T05:10:28;1.20;99.90
14053;DHT22;7101;51.600;7.310;2023-12-04T05:12:55;1.20;99.90
14053;DHT22;7101;51.600;7.310;2023-12-04T05:15:22;1.10;99.90
14053;DHT22;7101;51.600;7.310;2023-12-04T05:17:51;1.10;99.90
14053;DHT22;7101;51.600;7.310;2023-12-04T05:20:17;1.10;99.90
14053;DHT22;7101;51.600;7.310;2023-12-04T05:22:43;1.10;99.90
14053;DHT22;7101;51.600;7.310;2023-12-04T05:25:10;1.10;99.90
14053;DHT22;7101;51.600;7.310;2023-12-04T05:27:37;1.10;99.90
14053;DHT22;7101;51.600;7.310;2023-12-04T05:30:04;1.10;99.90
14053;DHT22;7101;51.600;7.310;2023-12-04T05:32:31;1.10;99.90
14053;DHT22;7101;51.600;7.310;2023-12-04T05:34:59;1.10;99.90
14053;DHT22;7101;51.600;7.310;2023-12-04T05:37:26;1.00;99.90
14053;DHT22;7101;51.600;7.310;2023-12-04T05:39:53;1.00;99.90
14053;DHT22;7101;51.600;7.310;2023-12-04T05:42:20;1.00;99.90
14053;DHT22;7101;51.600;7.310;2023-12-04T05:44:46;1.00;99.90
14053;DHT22;7101;51.600;7.310;2023-12-04T05:47:13;1.00;99.90
14053;DHT22;7101;51.600;7.310;2023-12-04T05:49:40;0.90;99.90
14053;DHT22;7101;51.600;7.310;2023-12-04T05:52:08;1.00;99.90
14053;DHT22;7101;51.600;7.310;2023-12-04T05:54:35;0.90;99.90
14053;DHT22;7101;51.600;7.310;2023-12-04T05:57:02;0.90;99.90
14053;DHT22;7101;51.600;7.310;2023-12-04T05:59:29;0.80;99.90
14053;DHT22;7101;51.600;7.310;2023-12-04T06:01:56;0.80;99.90
14053;DHT22;7101;51.600;7.310;2023-12-04T06:04:23;0.80;99.90
14053;DHT22;7101;51.600;7.310;2023-12-04T06:06:49;0.80;99.90
14053;DHT22;7101;51.600;7.310;2023-12-04T06:09:17;0.80;99.90
14053;DHT22;7101;51.600;7.310;2023-12-04T06:11:44;0.70;99.90
14053;DHT22;7101;51.600;7.310;2023-12-04T06:14:11;0.70;99.90
14053;DHT22;7101;51.600;7.310;2023-12-04T06:16:38;0.70;99.90
14053;DHT22;7101;51.600;7.310;2023-12-04T06:19:05;0.70;99.90
14053;DHT22;7101;51.600;7.310;2023-12-04T06:21:31;0.80;99.90
14053;DHT22;7101;51.600;7.310;2023-12-04T06:23:59;0.90;99.90
14053;DHT22;7101;51.600;7.310;2023-12-04T06:26:27;1.00;99.90
14053;DHT22;7101;51.600;7.310;2023-12-04T06:28:55;1.10;99.90
14053;DHT22;7101;51.600;7.310;2023-12-04T06:31:23;1.20;99.90
14053;DHT22;7101;51.600;7.310;2023-12-04T06:33:50;1.20;99.90
14053;DHT22;7101;51.600;7.310;2023-12-04T06:36:17;1.20;99.90
14053;DHT22;7101;51.600;7.310;2023-12-04T06:38:47;1.30;99.90
14053;DHT22;7101;51.600;7.310;2023-12-04T06:41:14;1.30;99.90
14053;DHT22;7101;51.600;7.310;2023-12-04T06:43:44;1.30;99.90
14053;DHT22;7101;51.600;7.310;2023-12-04T06:46:12;1.30;99.90
14053;DHT22;7101;51.600;7.310;2023-12-04T06:48:42;1.30;99.90
14053;DHT22;7101;51.600;7.310;2023-12-04T06:51:09;1.40;99.90
14053;DHT22;7101;51.600;7.310;2023-12-04T06:53:36;1.40;99.90
14053;DHT22;7101;51.600;7.310;2023-12-04T06:56:04;1.30;99.90
14053;DHT22;7101;51.600;7.310;2023-12-04T06:58:31;1.30;99.90
14053;DHT22;7101;51.600;7.310;2023-12-04T07:00:59;1.30;99.90
14053;DHT22;7101;51.600;7.310;2023-12-04T07:03:26;1.30;99.90
14053;DHT22;7101;51.600;7.310;2023-12-04T07:05:53;1.30;99.90
14053;DHT22;7101;51.600;7.310;2023-12-04T07:08:19;1.20;99.90
14053;DHT22;7101;51.600;7.310;2023-12-04T07:10:46;1.20;99.90
14053;DHT22;7101;51.600;7.310;2023-12-04T07:13:14;1.30;99.90
14053;DHT22;7101;51.600;7.310;2023-12-04T07:15:41;1.30;99.90
14053;DHT22;7101;51.600;7.310;2023-12-04T07:18:09;1.30;99.90
14053;DHT22;7101;51.600;7.310;2023-12-04T07:20:36;1.30;99.90
14053;DHT22;7101;51.600;7.310;2023-12-04T07:23:03;1.40;99.90
14053;DHT22;7101;51.600;7.310;2023-12-04T07:25:30;1.50;99.90
14053;DHT22;7101;51.600;7.310;2023-12-04T07:27:56;1.50;99.90
14053;DHT22;7101;51.600;7.310;2023-12-04T07:30:24;1.60;99.90
14053;DHT22;7101;51.600;7.310;2023-12-04T07:32:51;1.50;99.90
14053;DHT22;7101;51.600;7.310;2023-12-04T07:35:20;1.50;99.90
14053;DHT22;7101;51.600;7.310;2023-12-04T07:37:47;1.50;99.90
14053;DHT22;7101;51.600;7.310;2023-12-04T07:40:14;1.50;99.90
14053;DHT22;7101;51.600;7.310;2023-12-04T07:42:41;1.50;99.90
14053;DHT22;7101;51.600;7.310;2023-12-04T07:45:09;1.60;99.90
14053;DHT22;7101;51.600;7.310;2023-12-04T07:47:36;1.60;99.90
14053;DHT22;7101;51.600;7.310;2023-12-04T07:50:03;1.60;99.90
14053;DHT22;7101;51.600;7.310;2023-12-04T07:52:31;1.60;99.90
14053;DHT22;7101;51.600;7.310;2023-12-04T07:55:00;1.60;99.90
14053;DHT22;7101;51.600;7.310;2023-12-04T07:57:27;1.50;99.90
14053;DHT22;7101;51.600;7.310;2023-12-04T07:59:54;1.50;99.90
14053;DHT22;7101;51.600;7.310;2023-12-04T08:02:21;1.40;99.90
14053;DHT22;7101;51.600;7.310;2023-12-04T08:04:48;1.40;99.90
14053;DHT22;7101;51.600;7.310;2023-12-04T08:07:15;1.40;99.90
14053;DHT22;7101;51.600;7.310;2023-12-04T08:09:43;1.60;99.90
14053;DHT22;7101;51.600;7.310;2023-12-04T08:12:09;1.70;99.90
14053;DHT22;7101;51.600;7.310;2023-12-04T08:14:36;1.70;99.90
14053;DHT22;7101;51.600;7.310;2023-12-04T08:17:03;1.80;99.90
14053;DHT22;7101;51.600;7.310;2023-12-04T08:19:31;1.90;99.90
14053;DHT22;7101;51.600;7.310;2023-12-04T08:21:57;1.90;99.90
14053;DHT22;7101;51.600;7.310;2023-12-04T08:24:24;2.00;99.90
14053;DHT22;7101;51.600;7.310;2023-12-04T08:26:52;1.90;99.90
14053;DHT22;7101;51.600;7.310;2023-12-04T08:29:19;2.00;99.90
14053;DHT22;7101;51.600;7.310;2023-12-04T08:31:46;2.00;99.90
14053;DHT22;7101;51.600;7.310;2023-12-04T08:34:12;2.00;99.90
14053;DHT22;7101;51.600;7.310;2023-12-04T08:36:39;2.10;99.90
14053;DHT22;7101;51.600;7.310;2023-12-04T08:39:06;2.10;99.90
14053;DHT22;7101;51.600;7.310;2023-12-04T08:41:34;2.10;99.90
14053;DHT22;7101;51.600;7.310;2023-12-04T08:44:02;2.10;99.90
14053;DHT22;7101;51.600;7.310;2023-12-04T08:46:29;2.10;99.90
14053;DHT22;7101;51.600;7.310;2023-12-04T08:48:55;2.10;99.90
14053;DHT22;7101;51.600;7.310;2023-12-04T08:51:22;2.20;99.90
14053;DHT22;7101;51.600;7.310;2023-12-04T08:53:49;2.20;99.90
14053;DHT22;7101;51.600;7.310;2023-12-04T08:56:16;2.20;99.90
14053;DHT22;7101;51.600;7.310;2023-12-04T08:58:43;2.20;99.90
14053;DHT22;7101;51.600;7.310;2023-12-04T09:01:11;2.30;99.90
14053;DHT22;7101;51.600;7.310;2023-12-04T09:03:38;2.30;99.90
14053;DHT22;7101;51.600;7.310;2023-12-04T09:06:05;2.30;99.90
14053;DHT22;7101;51.600;7.310;2023-12-04T09:08:32;2.30;99.90
14053;DHT22;7101;51.600;7.310;2023-12-04T09:10:59;2.30;99.90
14053;DHT22;7101;51.600;7.310;2023-12-04T09:13:26;2.30;99.90
14053;DHT22;7101;51.600;7.310;2023-12-04T09:15:54;2.30;99.90
14053;DHT22;7101;51.600;7.310;2023-12-04T09:18:22;2.40;99.90
14053;DHT22;7101;51.600;7.310;2023-12-04T09:20:49;2.40;99.90
14053;DHT22;7101;51.600;7.310;2023-12-04T09:23:16;2.40;99.90
14053;DHT22;7101;51.600;7.310;2023-12-04T09:25:42;2.40;99.90
14053;DHT22;7101;51.600;7.310;2023-12-04T09:28:09;2.40;99.90
14053;DHT22;7101;51.600;7.310;2023-12-04T09:30:36;2.50;99.90
14053;DHT22;7101;51.600;7.310;2023-12-04T09:33:04;2.50;99.90
14053;DHT22;7101;51.600;7.310;2023-12-04T09:35:33;2.50;99.90
14053;DHT22;7101;51.600;7.310;2023-12-04T09:38:00;2.60;99.90
14053;DHT22;7101;51.600;7.310;2023-12-04T09:40:26;2.60;99.90
14053;DHT22;7101;51.600;7.310;2023-12-04T09:42:53;2.60;99.90
14053;DHT22;7101;51.600;7.310;2023-12-04T09:45:20;2.70;99.90
14053;DHT22;7101;51.600;7.310;2023-12-04T09:47:48;2.70;99.90
14053;DHT22;7101;51.600;7.310;2023-12-04T09:50:16;2.70;99.90
14053;DHT22;7101;51.600;7.310;2023-12-04T09:52:48;2.70;99.90
14053;DHT22;7101;51.600;7.310;2023-12-04T09:55:15;2.70;99.90
14053;DHT22;7101;51.600;7.310;2023-12-04T09:57:43;2.60;99.90
14053;DHT22;7101;51.600;7.310;2023-12-04T10:00:12;2.60;99.90
14053;DHT22;7101;51.600;7.310;2023-12-04T10:02:40;2.60;99.90
14053;DHT22;7101;51.600;7.310;2023-12-04T10:05:07;2.60;99.90
14053;DHT22;7101;51.600;7.310;2023-12-04T10:07:34;2.80;99.90
14053;DHT22;7101;51.600;7.310;2023-12-04T10:10:05;2.90;99.90
14053;DHT22;7101;51.600;7.310;2023-12-04T10:12:33;3.00;99.90
14053;DHT22;7101;51.600;7.310;2023-12-04T10:15:06;3.00;99.90
14053;DHT22;7101;51.600;7.310;2023-12-04T10:17:34;3.10;99.90
14053;DHT22;7101;51.600;7.310;2023-12-04T10:20:08;3.10;99.90
14053;DHT22;7101;51.600;7.310;2023-12-04T10:22:38;2.90;99.90
14053;DHT22;7101;51.600;7.310;2023-12-04T10:25:16;2.90;99.90
14053;DHT22;7101;51.600;7.310;2023-12-04T10:27:44;2.90;99.90
14053;DHT22;7101;51.600;7.310;2023-12-04T10:30:23;3.00;99.90
14053;DHT22;7101;51.600;7.310;2023-12-04T10:32:54;2.90;99.90
14053;DHT22;7101;51.600;7.310;2023-12-04T10:35:22;3.00;99.90
14053;DHT22;7101;51.600;7.310;2023-12-04T10:37:52;3.00;99.90
14053;DHT22;7101;51.600;7.310;2023-12-04T10:40:24;3.00;99.90
14053;DHT22;7101;51.600;7.310;2023-12-04T10:42:53;3.10;99.90
14053;DHT22;7101;51.600;7.310;2023-12-04T10:45:36;3.20;99.90
14053;DHT22;7101;51.600;7.310;2023-12-04T10:48:03;3.30;99.90
14053;DHT22;7101;51.600;7.310;2023-12-04T10:50:31;3.30;99.90
14053;DHT22;7101;51.600;7.310;2023-12-04T10:53:01;3.40;99.90
14053;DHT22;7101;51.600;7.310;2023-12-04T10:55:29;3.40;99.90
14053;DHT22;7101;51.600;7.310;2023-12-04T10:57:56;3.50;99.90
14053;DHT22;7101;51.600;7.310;2023-12-04T11:00:23;3.60;99.90
14053;DHT22;7101;51.600;7.310;2023-12-04T11:02:52;3.60;99.90
14053;DHT22;7101;51.600;7.310;2023-12-04T11:05:23;3.60;99.90
14053;DHT22;7101;51.600;7.310;2023-12-04T11:07:52;3.60;99.90
14053;DHT22;7101;51.600;7.310;2023-12-04T11:10:21;3.60;99.90
14053;DHT22;7101;51.600;7.310;2023-12-04T11:12:53;3.60;99.90
14053;DHT22;7101;51.600;7.310;2023-12-04T11:15:23;3.60;99.90
14053;DHT22;7101;51.600;7.310;2023-12-04T11:17:57;3.60;99.90
14053;DHT22;7101;51.600;7.310;2023-12-04T11:20:27;3.70;99.90
14053;DHT22;7101;51.600;7.310;2023-12-04T11:22:56;3.70;99.90
14053;DHT22;7101;51.600;7.310;2023-12-04T11:25:24;3.70;99.90
14053;DHT22;7101;51.600;7.310;2023-12-04T11:27:54;3.60;99.90
14053;DHT22;7101;51.600;7.310;2023-12-04T11:30:22;3.50;99.90
14053;DHT22;7101;51.600;7.310;2023-12-04T11:32:49;3.50;99.90
14053;DHT22;7101;51.600;7.310;2023-12-04T11:35:17;3.50;99.90
14053;DHT22;7101;51.600;7.310;2023-12-04T11:37:44;3.50;99.90
14053;DHT22;7101;51.600;7.310;2023-12-04T11:40:12;3.50;99.90
14053;DHT22;7101;51.600;7.310;2023-12-04T11:42:39;3.50;99.90
14053;DHT22;7101;51.600;7.310;2023-12-04T11:45:08;3.60;99.90
14053;DHT22;7101;51.600;7.310;2023-12-04T11:47:59;3.50;99.90
14053;DHT22;7101;51.600;7.310;2023-12-04T11:50:26;3.50;99.90
14053;DHT22;7101;51.600;7.310;2023-12-04T11:52:54;3.50;99.90
14053;DHT22;7101;51.600;7.310;2023-12-04T11:55:22;3.50;99.90
14053;DHT22;7101;51.600;7.310;2023-12-04T11:57:50;3.50;99.90
14053;DHT22;7101;51.600;7.310;2023-12-04T12:00:23;3.60;99.90
14053;DHT22;7101;51.600;7.310;2023-12-04T12:03:05;3.60;99.90
14053;DHT22;7101;51.600;7.310;2023-12-04T12:05:32;3.70;99.90
14053;DHT22;7101;51.600;7.310;2023-12-04T12:08:01;3.60;99.90
14053;DHT22;7101;51.600;7.310;2023-12-04T12:10:29;3.60;99.90
14053;DHT22;7101;51.600;7.310;2023-12-04T12:12:56;3.60;99.90
14053;DHT22;7101;51.600;7.310;2023-12-04T12:15:24;3.60;99.90
14053;DHT22;7101;51.600;7.310;2023-12-04T12:17:51;3.60;99.90
14053;DHT22;7101;51.600;7.310;2023-12-04T12:20:19;3.50;99.90
14053;DHT22;7101;51.600;7.310;2023-12-04T12:22:48;3.50;99.90
14053;DHT22;7101;51.600;7.310;2023-12-04T12:25:15;3.50;99.90
14053;DHT22;7101;51.600;7.310;2023-12-04T12:27:43;3.50;99.90
14053;DHT22;7101;51.600;7.310;2023-12-04T12:30:10;3.60;99.90
14053;DHT22;7101;51.600;7.310;2023-12-04T12:32:38;3.70;99.90
14053;DHT22;7101;51.600;7.310;2023-12-04T12:35:06;3.70;99.90
14053;DHT22;7101;51.600;7.310;2023-12-04T12:37:34;3.70;99.90
14053;DHT22;7101;51.600;7.310;2023-12-04T12:40:01;3.80;99.90
14053;DHT22;7101;51.600;7.310;2023-12-04T12:42:30;3.80;99.90
14053;DHT22;7101;51.600;7.310;2023-12-04T12:45:00;3.80;99.90
14053;DHT22;7101;51.600;7.310;2023-12-04T12:47:29;3.60;99.90
14053;DHT22;7101;51.600;7.310;2023-12-04T12:49:57;3.70;99.90
14053;DHT22;7101;51.600;7.310;2023-12-04T12:52:27;3.60;99.90
14053;DHT22;7101;51.600;7.310;2023-12-04T12:54:54;3.50;99.90
14053;DHT22;7101;51.600;7.310;2023-12-04T12:57:21;3.60;99.90
14053;DHT22;7101;51.600;7.310;2023-12-04T12:59:47;3.70;99.90
14053;DHT22;7101;51.600;7.310;2023-12-04T13:02:14;3.50;99.90
14053;DHT22;7101;51.600;7.310;2023-12-04T13:04:43;3.50;99.90
14053;DHT22;7101;51.600;7.310;2023-12-04T13:07:11;3.50;99.90
14053;DHT22;7101;51.600;7.310;2023-12-04T13:09:38;3.40;99.90
14053;DHT22;7101;51.600;7.310;2023-12-04T13:12:06;3.40;99.90
14053;DHT22;7101;51.600;7.310;2023-12-04T13:14:34;3.30;99.90
14053;DHT22;7101;51.600;7.310;2023-12-04T13:17:01;3.30;99.90
14053;DHT22;7101;51.600;7.310;2023-12-04T13:19:28;3.30;99.90
14053;DHT22;7101;51.600;7.310;2023-12-04T13:21:57;3.20;99.90
14053;DHT22;7101;51.600;7.310;2023-12-04T13:24:25;3.10;99.90
14053;DHT22;7101;51.600;7.310;2023-12-04T13:26:53;3.10;99.90
14053;DHT22;7101;51.600;7.310;2023-12-04T13:29:20;3.00;99.90
14053;DHT22;7101;51.600;7.310;2023-12-04T13:31:47;2.90;99.90
14053;DHT22;7101;51.600;7.310;2023-12-04T13:34:15;2.90;99.90
14053;DHT22;7101;51.600;7.310;2023-12-04T13:36:42;2.80;99.90
14053;DHT22;7101;51.600;7.310;2023-12-04T13:39:09;2.80;99.90
14053;DHT22;7101;51.600;7.310;2023-12-04T13:41:44;2.80;99.90
14053;DHT22;7101;51.600;7.310;2023-12-04T13:44:29;2.80;99.90
14053;DHT22;7101;51.600;7.310;2023-12-04T13:46:56;2.80;99.90
14053;DHT22;7101;51.600;7.310;2023-12-04T13:49:23;2.80;99.90
14053;DHT22;7101;51.600;7.310;2023-12-04T13:51:50;2.80;99.90
14053;DHT22;7101;51.600;7.310;2023-12-04T13:54:18;2.80;99.90
14053;DHT22;7101;51.600;7.310;2023-12-04T13:56:48;2.70;99.90
14053;DHT22;7101;51.600;7.310;2023-12-04T13:59:22;2.80;99.90
14053;DHT22;7101;51.600;7.310;2023-12-04T14:01:50;2.70;99.90
14053;DHT22;7101;51.600;7.310;2023-12-04T14:04:20;2.70;99.90
14053;DHT22;7101;51.600;7.310;2023-12-04T14:06:49;2.60;99.90
14053;DHT22;7101;51.600;7.310;2023-12-04T14:09:16;2.70;99.90
14053;DHT22;7101;51.600;7.310;2023-12-04T14:11:43;2.80;99.90
14053;DHT22;7101;51.600;7.310;2023-12-04T14:14:12;2.70;99.90
14053;DHT22;7101;51.600;7.310;2023-12-04T14:16:39;2.80;99.90
14053;DHT22;7101;51.600;7.310;2023-12-04T14:19:07;2.80;99.90
14053;DHT22;7101;51.600;7.310;2023-12-04T14:21:34;2.80;99.90
14053;DHT22;7101;51.600;7.310;2023-12-04T14:24:01;2.80;99.90
14053;DHT22;7101;51.600;7.310;2023-12-04T14:26:27;2.80;99.90
14053;DHT22;7101;51.600;7.310;2023-12-04T14:28:54;2.90;99.90
14053;DHT22;7101;51.600;7.310;2023-12-04T14:31:24;2.90;99.90
14053;DHT22;7101;51.600;7.310;2023-12-04T14:33:51;2.80;99.90
14053;DHT22;7101;51.600;7.310;2023-12-04T14:36:18;2.80;99.90
14053;DHT22;7101;51.600;7.310;2023-12-04T14:38:45;2.80;99.90
14053;DHT22;7101;51.600;7.310;2023-12-04T14:41:12;2.80;99.90
14053;DHT22;7101;51.600;7.310;2023-12-04T14:43:38;2.80;99.90
14053;DHT22;7101;51.600;7.310;2023-12-04T14:46:06;2.80;56.80
14053;DHT22;7101;51.600;7.310;2023-12-04T14:48:36;2.80;1.00
14053;DHT22;7101;51.600;7.310;2023-12-04T14:51:04;2.80;1.00
14053;DHT22;7101;51.600;7.310;2023-12-04T14:53:31;2.80;1.00
14053;DHT22;7101;51.600;7.310;2023-12-04T14:56:09;2.80;1.00
14053;DHT22;7101;51.600;7.310;2023-12-04T14:58:56;2.90;99.90
14053;DHT22;7101;51.600;7.310;2023-12-04T15:01:40;2.80;1.00
14053;DHT22;7101;51.600;7.310;2023-12-04T15:04:22;2.80;99.90
14053;DHT22;7101;51.600;7.310;2023-12-04T15:07:06;2.80;99.90
14053;DHT22;7101;51.600;7.310;2023-12-04T15:10:08;2.80;99.90
14053;DHT22;7101;51.600;7.310;2023-12-04T15:13:04;2.80;99.90
14053;DHT22;7101;51.600;7.310;2023-12-04T15:15:47;2.80;99.90
14053;DHT22;7101;51.600;7.310;2023-12-04T15:18:40;2.80;99.90
14053;DHT22;7101;51.600;7.310;2023-12-04T15:21:24;2.80;1.00
14053;DHT22;7101;51.600;7.310;2023-12-04T15:23:51;2.80;1.00
14053;DHT22;7101;51.600;7.310;2023-12-04T15:26:17;2.80;1.00
14053;DHT22;7101;51.600;7.310;2023-12-04T15:28:44;2.80;99.90
14053;DHT22;7101;51.600;7.310;2023-12-04T15:31:10;2.80;99.90
14053;DHT22;7101;51.600;7.310;2023-12-04T15:33:36;2.90;99.90
14053;DHT22;7101;51.600;7.310;2023-12-04T15:36:03;2.80;75.00
14053;DHT22;7101;51.600;7.310;2023-12-04T15:38:31;2.80;99.90
14053;DHT22;7101;51.600;7.310;2023-12-04T15:40:57;2.80;12.80
14053;DHT22;7101;51.600;7.310;2023-12-04T15:43:25;2.80;37.30
14053;DHT22;7101;51.600;7.310;2023-12-04T15:45:50;2.90;10.60
14053;DHT22;7101;51.600;7.310;2023-12-04T15:48:17;2.90;1.00
14053;DHT22;7101;51.600;7.310;2023-12-04T15:50:45;2.90;1.00
14053;DHT22;7101;51.600;7.310;2023-12-04T15:53:11;2.90;1.00
14053;DHT22;7101;51.600;7.310;2023-12-04T15:55:39;2.90;2.30
14053;DHT22;7101;51.600;7.310;2023-12-04T15:58:05;2.90;1.00
14053;DHT22;7101;51.600;7.310;2023-12-04T16:00:32;2.90;1.00
14053;DHT22;7101;51.600;7.310;2023-12-04T16:02:59;2.90;99.90
14053;DHT22;7101;51.600;7.310;2023-12-04T16:05:26;3.00;99.90
14053;DHT22;7101;51.600;7.310;2023-12-04T16:07:53;2.90;59.60
14053;DHT22;7101;51.600;7.310;2023-12-04T16:10:19;3.00;1.00